Time;durP1;ratioP1;P1;durP2;ratioP2;P2;SDS_P1;SDS_P2;PMS_P1;PMS_P2;Temp;Humidity;BMP_temperature;BMP_pressure;BME280_temperature;BME280_humidity;BME280_pressure;Samples;Min_cycle;Max_cycle;Signal;HPM_P1;HPM_P2
2024/02/03 00:00:30;;;;;;;1.95;1.75;;;6.00;99.90;;;;;;5041260;28;20226;-76
2024/02/03 00:02:58;;;;;;;1.42;1.00;;;6.00;99.90;;;;;;5039518;28;20215;-76
2024/02/03 00:05:25;;;;;;;1.42;1.33;;;5.90;99.90;;;;;;5041891;28;20700;-76
2024/02/03 00:07:52;;;;;;;1.45;1.20;;;5.90;99.90;;;;;;5050997;28;20227;-76
2024/02/03 00:10:18;;;;;;;2.53;1.10;;;5.80;99.90;;;;;;5054430;28;20201;-76
2024/02/03 00:12:45;;;;;;;2.03;0.90;;;5.70;99.90;;;;;;5039340;28;20214;-76
2024/02/03 00:15:14;;;;;;;1.13;1.02;;;5.70;99.90;;;;;;5045072;28;20206;-76
2024/02/03 00:17:41;;;;;;;1.30;1.20;;;5.60;99.90;;;;;;5040173;28;20213;-76
2024/02/03 00:20:08;;;;;;;2.45;1.20;;;5.70;99.90;;;;;;5040238;28;20316;-76
2024/02/03 00:22:35;;;;;;;1.30;1.10;;;5.70;99.90;;;;;;5041180;28;20209;-76
2024/02/03 00:25:02;;;;;;;1.20;1.00;;;5.70;99.90;;;;;;5039931;28;20209;-76
2024/02/03 00:27:29;;;;;;;1.15;0.93;;;5.60;99.90;;;;;;5041683;28;20248;-75
2024/02/03 00:29:55;;;;;;;1.40;1.20;;;5.50;99.90;;;;;;5039264;28;20206;-76
2024/02/03 00:32:24;;;;;;;3.00;1.10;;;5.40;99.90;;;;;;5038468;28;20202;-76
2024/02/03 00:34:50;;;;;;;3.40;1.30;;;5.40;99.90;;;;;;5039478;28;20206;-76
2024/02/03 00:37:17;;;;;;;2.35;1.30;;;5.30;99.90;;;;;;5041640;28;20210;-76
2024/02/03 00:39:44;;;;;;;1.35;1.10;;;5.30;99.90;;;;;;5039987;28;20264;-75
2024/02/03 00:42:11;;;;;;;1.92;1.52;;;5.30;99.90;;;;;;5041120;28;20213;-76
2024/02/03 00:44:38;;;;;;;0.88;0.80;;;5.30;99.90;;;;;;5041111;28;20231;-76
2024/02/03 00:47:05;;;;;;;1.30;1.20;;;5.30;99.90;;;;;;5039527;28;20202;-76
2024/02/03 00:49:33;;;;;;;1.23;1.13;;;5.30;99.90;;;;;;5042139;28;20232;-76
2024/02/03 00:52:00;;;;;;;1.55;1.10;;;5.40;99.90;;;;;;5039607;28;20202;-75
2024/02/03 00:54:26;;;;;;;1.25;1.15;;;5.40;99.90;;;;;;5042537;28;20581;-75
2024/02/03 00:56:53;;;;;;;1.17;1.08;;;5.50;99.90;;;;;;5039076;28;20206;-76
2024/02/03 00:59:20;;;;;;;1.60;1.10;;;5.50;99.90;;;;;;5042213;28;20597;-76
2024/02/03 01:01:46;;;;;;;1.35;1.00;;;5.50;99.90;;;;;;5039714;28;20218;-76
2024/02/03 01:04:13;;;;;;;1.10;1.00;;;5.50;99.90;;;;;;5041457;28;20213;-76
2024/02/03 01:06:41;;;;;;;1.92;1.20;;;5.50;99.90;;;;;;5040584;28;20205;-75
2024/02/03 01:09:09;;;;;;;0.98;0.80;;;5.50;99.90;;;;;;5040781;28;20225;-76
2024/02/03 01:11:36;;;;;;;1.73;0.90;;;5.50;99.90;;;;;;5041492;28;20216;-75
2024/02/03 01:14:02;;;;;;;2.00;1.08;;;5.40;99.90;;;;;;5040040;28;20213;-76
2024/02/03 01:16:29;;;;;;;1.20;1.10;;;5.40;99.90;;;;;;5042160;28;20208;-75
2024/02/03 01:18:56;;;;;;;1.65;1.10;;;5.30;99.90;;;;;;5042058;28;20237;-75
2024/02/03 01:21:23;;;;;;;1.30;1.20;;;5.30;99.90;;;;;;5050611;28;20209;-76
2024/02/03 01:23:51;;;;;;;1.00;0.90;;;5.20;99.90;;;;;;5039968;28;20205;-75
2024/02/03 01:26:18;;;;;;;1.95;1.23;;;5.00;99.90;;;;;;5042393;28;20696;-75
2024/02/03 01:28:45;;;;;;;1.30;1.20;;;4.90;99.90;;;;;;5040575;28;20213;-76
2024/02/03 01:31:11;;;;;;;1.40;1.10;;;4.80;99.90;;;;;;5042139;28;20201;-76
2024/02/03 01:33:38;;;;;;;1.10;1.00;;;4.70;99.90;;;;;;5042638;28;20213;-75
2024/02/03 01:36:06;;;;;;;1.60;1.33;;;4.60;99.90;;;;;;5042008;28;20213;-76
2024/02/03 01:38:32;;;;;;;1.25;1.15;;;4.50;99.90;;;;;;5043150;28;20732;-75
2024/02/03 01:41:00;;;;;;;1.02;0.90;;;4.40;99.90;;;;;;5043322;28;20221;-76
2024/02/03 01:43:27;;;;;;;1.45;1.10;;;4.40;99.90;;;;;;5044239;28;20638;-76
2024/02/03 01:45:54;;;;;;;1.52;1.00;;;4.30;99.90;;;;;;5041184;28;20206;-76
2024/02/03 01:48:21;;;;;;;2.38;1.52;;;4.20;99.90;;;;;;5039103;28;20232;-75
2024/02/03 01:50:51;;;;;;;1.20;1.10;;;4.10;99.90;;;;;;5043498;28;20209;-76
2024/02/03 01:53:19;;;;;;;1.25;1.00;;;4.00;99.90;;;;;;5045331;28;20197;-76
2024/02/03 01:55:46;;;;;;;1.02;0.90;;;3.90;99.90;;;;;;5043331;28;20213;-76
2024/02/03 01:58:14;;;;;;;1.48;1.23;;;3.90;99.90;;;;;;5044344;28;20218;-76
2024/02/03 02:00:41;;;;;;;0.90;0.80;;;3.80;99.90;;;;;;5043024;28;20232;-76
2024/02/03 02:03:08;;;;;;;1.65;0.90;;;3.70;99.90;;;;;;5043805;28;20202;-75
2024/02/03 02:05:35;;;;;;;1.95;1.42;;;3.70;99.90;;;;;;5045213;28;20209;-76
2024/02/03 02:08:01;;;;;;;1.88;1.15;;;3.60;99.90;;;;;;5057050;28;20222;-76
2024/02/03 02:10:28;;;;;;;1.33;1.20;;;3.50;99.90;;;;;;5059658;28;20207;-76
2024/02/03 02:12:55;;;;;;;1.30;1.15;;;3.50;99.90;;;;;;5054316;28;20212;-76
2024/02/03 02:15:23;;;;;;;0.95;0.90;;;3.40;99.90;;;;;;5040034;28;20304;-76
2024/02/03 02:17:57;;;;;;;1.30;1.15;;;3.40;99.90;;;;;;5043449;28;20231;-76
2024/02/03 02:20:25;;;;;;;1.23;0.90;;;3.30;99.90;;;;;;5040377;28;20219;-76
2024/02/03 02:22:52;;;;;;;1.33;1.23;;;3.30;99.90;;;;;;5043385;28;20216;-76
2024/02/03 02:25:18;;;;;;;1.33;0.90;;;3.20;99.90;;;;;;5044734;28;20202;-76
2024/02/03 02:27:45;;;;;;;1.50;1.40;;;3.10;99.90;;;;;;5044893;28;20617;-75
2024/02/03 02:30:12;;;;;;;1.63;1.15;;;3.10;99.90;;;;;;5045391;28;20205;-76
2024/02/03 02:32:39;;;;;;;1.02;0.85;;;3.00;99.90;;;;;;5046636;28;20204;-76
2024/02/03 02:35:06;;;;;;;1.13;1.00;;;3.00;99.90;;;;;;5043960;28;20585;-76
2024/02/03 02:37:34;;;;;;;1.58;1.10;;;3.00;99.90;;;;;;5046014;28;20373;-76
2024/02/03 02:40:01;;;;;;;1.23;1.13;;;2.90;99.90;;;;;;5044201;28;20206;-76
2024/02/03 02:42:28;;;;;;;1.63;1.25;;;2.90;99.90;;;;;;5046923;28;20677;-76
2024/02/03 02:44:55;;;;;;;4.40;1.55;;;2.90;99.90;;;;;;5044324;28;20213;-76
2024/02/03 02:47:21;;;;;;;1.33;1.08;;;2.80;99.90;;;;;;5039818;28;20205;-76
2024/02/03 02:49:48;;;;;;;1.30;1.00;;;2.80;99.90;;;;;;5044572;28;20212;-76
2024/02/03 02:52:15;;;;;;;1.17;0.80;;;2.80;99.90;;;;;;5044833;28;20202;-76
2024/02/03 02:54:44;;;;;;;1.27;1.10;;;2.70;99.90;;;;;;5047822;28;20213;-76
2024/02/03 02:57:11;;;;;;;2.28;1.20;;;2.70;99.90;;;;;;5044322;28;20203;-76
2024/02/03 02:59:38;;;;;;;2.10;2.00;;;2.60;99.90;;;;;;5045861;28;20588;-76
2024/02/03 03:02:05;;;;;;;1.20;1.10;;;2.60;99.90;;;;;;5043380;28;20698;-76
2024/02/03 03:04:32;;;;;;;1.52;1.42;;;2.60;99.90;;;;;;5046217;28;20216;-75
2024/02/03 03:06:59;;;;;;;1.98;1.10;;;2.60;99.90;;;;;;5043488;28;20246;-76
2024/02/03 03:09:26;;;;;;;1.10;1.00;;;2.50;99.90;;;;;;5046144;28;20239;-76
2024/02/03 03:11:54;;;;;;;0.95;0.85;;;2.50;99.90;;;;;;5047342;28;20232;-76
2024/02/03 03:14:21;;;;;;;1.13;1.02;;;2.50;99.90;;;;;;5050496;28;20222;-76
2024/02/03 03:16:48;;;;;;;1.30;1.20;;;2.50;99.90;;;;;;5049812;28;20212;-76
2024/02/03 03:19:18;;;;;;;1.27;1.17;;;2.40;99.90;;;;;;5050320;28;20725;-75
2024/02/03 03:21:45;;;;;;;1.20;1.10;;;2.40;99.90;;;;;;5050107;28;20227;-75
2024/02/03 03:24:11;;;;;;;1.05;0.75;;;2.40;99.90;;;;;;5048836;28;20229;-76
2024/02/03 03:26:42;;;;;;;1.90;1.08;;;2.30;99.90;;;;;;5050155;28;20204;-76
2024/02/03 03:29:11;;;;;;;2.20;1.60;;;2.30;99.90;;;;;;5064678;28;20641;-76
2024/02/03 03:31:39;;;;;;;1.10;1.00;;;2.30;99.90;;;;;;5050309;28;20238;-76
2024/02/03 03:34:05;;;;;;;0.80;0.80;;;2.30;99.90;;;;;;5048375;28;20217;-76
2024/02/03 03:36:32;;;;;;;2.05;1.00;;;2.30;99.90;;;;;;5050199;28;20206;-76
2024/02/03 03:38:59;;;;;;;3.85;1.05;;;2.20;99.90;;;;;;5048249;28;20239;-76
2024/02/03 03:41:26;;;;;;;1.50;1.05;;;2.30;99.90;;;;;;5050541;28;20247;-76
2024/02/03 03:43:53;;;;;;;1.10;0.90;;;2.20;99.90;;;;;;5049165;28;20210;-75
2024/02/03 03:46:21;;;;;;;0.85;0.77;;;2.10;99.90;;;;;;5050021;28;20203;-75
2024/02/03 03:48:47;;;;;;;1.70;1.10;;;2.10;99.90;;;;;;5049761;28;20283;-75
2024/02/03 03:51:14;;;;;;;1.50;1.20;;;2.10;99.90;;;;;;5049310;28;20207;-75
2024/02/03 03:53:41;;;;;;;0.80;0.70;;;2.00;99.90;;;;;;5050586;28;20204;-76
2024/02/03 03:56:08;;;;;;;1.83;1.10;;;2.00;99.90;;;;;;5048497;28;20204;-76
2024/02/03 03:58:34;;;;;;;1.10;1.00;;;2.00;99.90;;;;;;5050591;28;20227;-76
2024/02/03 04:01:01;;;;;;;1.20;0.85;;;2.00;99.90;;;;;;5048514;28;20704;-76
2024/02/03 04:03:30;;;;;;;1.10;0.85;;;2.00;99.90;;;;;;5050689;28;20668;-75
2024/02/03 04:05:57;;;;;;;1.10;0.95;;;2.00;99.90;;;;;;5048777;28;20206;-75
2024/02/03 04:08:24;;;;;;;3.38;1.50;;;2.00;99.90;;;;;;5050573;28;20268;-76
2024/02/03 04:10:51;;;;;;;1.02;0.93;;;1.90;99.90;;;;;;5050201;28;20203;-75
2024/02/03 04:13:18;;;;;;;1.33;1.23;;;1.90;99.90;;;;;;5054219;28;20204;-76
2024/02/03 04:15:45;;;;;;;1.08;0.98;;;1.90;99.90;;;;;;5055643;28;20214;-76
2024/02/03 04:18:13;;;;;;;1.10;1.00;;;1.90;99.90;;;;;;5058537;28;20230;-75
2024/02/03 04:20:41;;;;;;;1.42;1.15;;;1.90;99.90;;;;;;5050721;28;20222;-75
2024/02/03 04:23:08;;;;;;;1.00;0.90;;;1.90;99.90;;;;;;5048349;28;20213;-75
2024/02/03 04:25:35;;;;;;;1.08;0.98;;;1.90;99.90;;;;;;5050684;28;20265;-76
2024/02/03 04:28:01;;;;;;;0.95;0.80;;;1.80;99.90;;;;;;5049443;28;20747;-76
2024/02/03 04:30:29;;;;;;;1.35;1.23;;;1.80;99.90;;;;;;5050937;28;20212;-75
2024/02/03 04:32:55;;;;;;;2.13;1.50;;;1.80;99.90;;;;;;5049600;28;20215;-76
2024/02/03 04:35:22;;;;;;;4.43;1.30;;;1.80;99.90;;;;;;5043503;28;20207;-76
2024/02/03 04:37:51;;;;;;;1.30;0.98;;;1.80;99.90;;;;;;5050931;28;20239;-76
2024/02/03 04:40:17;;;;;;;2.85;1.10;;;1.80;99.90;;;;;;5050367;28;20215;-76
2024/02/03 04:42:44;;;;;;;0.80;0.75;;;1.80;99.90;;;;;;5051017;28;20254;-76
2024/02/03 04:45:11;;;;;;;1.10;1.00;;;1.80;99.90;;;;;;5049485;28;20206;-74
2024/02/03 04:47:38;;;;;;;1.35;1.20;;;1.80;99.90;;;;;;5050951;28;20708;-76
2024/02/03 04:50:05;;;;;;;1.40;1.00;;;1.80;99.90;;;;;;5049852;28;20223;-75
2024/02/03 04:52:32;;;;;;;0.82;0.70;;;1.80;99.90;;;;;;5050990;28;20224;-75
2024/02/03 04:55:00;;;;;;;1.30;0.95;;;1.80;99.90;;;;;;5050962;28;20213;-76
2024/02/03 04:57:27;;;;;;;1.55;1.45;;;1.70;99.90;;;;;;5050832;28;20201;-75
2024/02/03 04:59:54;;;;;;;1.05;0.95;;;1.70;99.90;;;;;;5050442;28;20213;-76
2024/02/03 05:02:21;;;;;;;1.23;0.80;;;1.70;99.90;;;;;;5050910;28;20238;-75
2024/02/03 05:04:47;;;;;;;1.63;1.00;;;1.70;99.90;;;;;;5051104;28;20207;-76
2024/02/03 05:07:15;;;;;;;1.00;0.90;;;1.70;99.90;;;;;;5049939;28;20216;-76
2024/02/03 05:09:41;;;;;;;2.30;1.05;;;1.70;99.90;;;;;;5050970;28;20234;-76
2024/02/03 05:12:10;;;;;;;1.27;1.10;;;1.70;99.90;;;;;;5050143;28;20680;-75
2024/02/03 05:14:36;;;;;;;1.50;0.80;;;1.60;99.90;;;;;;5051252;28;20204;-76
2024/02/03 05:17:03;;;;;;;1.23;1.00;;;1.60;99.90;;;;;;5049999;28;20207;-76
2024/02/03 05:19:30;;;;;;;1.33;1.23;;;1.60;99.90;;;;;;5051298;28;20231;-75
2024/02/03 05:21:57;;;;;;;1.20;1.00;;;1.60;99.90;;;;;;5050165;28;20228;-75
2024/02/03 05:24:23;;;;;;;1.00;0.90;;;1.50;99.90;;;;;;5051245;28;20688;-75
2024/02/03 05:26:50;;;;;;;1.75;1.30;;;1.50;99.90;;;;;;5051130;28;20206;-75
2024/02/03 05:29:18;;;;;;;1.30;1.10;;;1.50;99.90;;;;;;5050353;28;20246;-74
2024/02/03 05:31:45;;;;;;;1.55;1.17;;;1.50;99.90;;;;;;5051281;28;20217;-75
2024/02/03 05:34:12;;;;;;;1.63;1.40;;;1.50;99.90;;;;;;5050492;28;20614;-75
2024/02/03 05:36:40;;;;;;;1.58;1.20;;;1.50;99.90;;;;;;5051191;28;20204;-75
2024/02/03 05:39:07;;;;;;;1.65;0.90;;;1.50;99.90;;;;;;5050759;28;20711;-75
2024/02/03 05:41:34;;;;;;;1.55;1.42;;;1.50;99.90;;;;;;5051289;28;20229;-76
2024/02/03 05:44:00;;;;;;;2.00;1.33;;;1.50;99.90;;;;;;5051062;28;20202;-75
2024/02/03 05:46:28;;;;;;;1.60;1.40;;;1.50;99.90;;;;;;5051514;28;20214;-76
2024/02/03 05:48:56;;;;;;;3.50;1.08;;;1.50;99.90;;;;;;5051436;28;20556;-76
2024/02/03 05:51:22;;;;;;;5.07;1.45;;;1.50;99.90;;;;;;5043535;28;20209;-75
2024/02/03 05:53:49;;;;;;;1.10;1.00;;;1.50;99.90;;;;;;5036816;28;20209;-75
2024/02/03 05:56:16;;;;;;;1.38;1.27;;;1.50;99.90;;;;;;5039133;28;20218;-76
2024/02/03 05:58:44;;;;;;;2.20;1.55;;;1.50;99.90;;;;;;5039739;28;20230;-75
2024/02/03 06:01:10;;;;;;;1.27;1.17;;;1.50;99.90;;;;;;5040822;28;20218;-75
2024/02/03 06:03:38;;;;;;;1.45;1.17;;;1.50;99.90;;;;;;5031761;28;20206;-75
2024/02/03 06:06:06;;;;;;;1.05;0.95;;;1.50;99.90;;;;;;5039439;28;20216;-75
2024/02/03 06:08:32;;;;;;;1.58;1.30;;;1.60;99.90;;;;;;5031773;28;20227;-75
2024/02/03 06:10:59;;;;;;;1.42;1.23;;;1.60;99.90;;;;;;5031576;28;20209;-75
2024/02/03 06:13:28;;;;;;;1.55;1.25;;;1.60;99.90;;;;;;5031709;28;20681;-75
2024/02/03 06:15:55;;;;;;;1.95;1.15;;;1.60;99.90;;;;;;5031464;28;20216;-75
2024/02/03 06:18:22;;;;;;;1.98;1.20;;;1.60;99.90;;;;;;5031796;28;20230;-76
2024/02/03 06:20:50;;;;;;;1.00;0.80;;;1.50;99.90;;;;;;5031915;28;20684;-75
2024/02/03 06:23:16;;;;;;;2.25;1.40;;;1.50;99.90;;;;;;5039729;28;20246;-76
2024/02/03 06:25:43;;;;;;;1.30;1.20;;;1.40;99.90;;;;;;5031560;28;20211;-76
2024/02/03 06:28:11;;;;;;;1.45;1.10;;;1.40;99.90;;;;;;5031932;28;20727;-76
2024/02/03 06:30:38;;;;;;;1.20;1.00;;;1.40;99.90;;;;;;5031925;28;20218;-76
2024/02/03 06:33:05;;;;;;;1.75;1.50;;;1.30;99.90;;;;;;5032232;28;20199;-76
2024/02/03 06:35:32;;;;;;;1.40;1.27;;;1.30;99.90;;;;;;5031640;28;20301;-76
2024/02/03 06:38:00;;;;;;;1.42;0.82;;;1.30;99.90;;;;;;5032349;28;20237;-75
2024/02/03 06:40:27;;;;;;;1.35;1.25;;;1.30;99.90;;;;;;5047483;28;20250;-76
2024/02/03 06:42:54;;;;;;;1.80;1.63;;;1.30;99.90;;;;;;5032190;28;20234;-77
2024/02/03 06:45:21;;;;;;;1.30;1.08;;;1.20;99.90;;;;;;5035433;28;20834;-76
2024/02/03 06:47:47;;;;;;;1.20;1.10;;;1.20;99.90;;;;;;5041478;28;20260;-76
2024/02/03 06:50:15;;;;;;;1.48;1.35;;;1.20;99.90;;;;;;5039373;28;20213;-76
2024/02/03 06:52:41;;;;;;;1.95;1.20;;;1.10;99.90;;;;;;5039694;28;20206;-76
2024/02/03 06:55:10;;;;;;;1.45;1.35;;;1.10;99.90;;;;;;5039789;28;20209;-76
2024/02/03 06:57:37;;;;;;;2.08;1.40;;;1.20;99.90;;;;;;5038899;28;20637;-77
2024/02/03 07:00:05;;;;;;;1.70;1.60;;;1.10;99.90;;;;;;5040089;28;20533;-76
2024/02/03 07:02:31;;;;;;;3.05;1.33;;;1.10;99.90;;;;;;5041389;28;20735;-77
2024/02/03 07:04:58;;;;;;;3.58;1.40;;;1.10;99.90;;;;;;5044131;28;20217;-77
2024/02/03 07:07:25;;;;;;;1.17;0.80;;;1.10;99.90;;;;;;5043506;28;20214;-77
2024/02/03 07:09:55;;;;;;;1.75;1.10;;;1.10;99.90;;;;;;5045807;28;20230;-77
2024/02/03 07:12:23;;;;;;;1.60;1.20;;;1.10;99.90;;;;;;5045479;28;20197;-77
2024/02/03 07:14:50;;;;;;;1.45;1.00;;;1.10;99.90;;;;;;5040204;28;20202;-76
2024/02/03 07:17:19;;;;;;;1.60;1.08;;;1.20;99.90;;;;;;5040480;28;20582;-77
2024/02/03 07:19:45;;;;;;;1.40;1.30;;;1.20;99.90;;;;;;5040408;28;20245;-76
2024/02/03 07:22:12;;;;;;;2.65;1.60;;;1.20;99.90;;;;;;5040705;28;20222;-75
2024/02/03 07:24:39;;;;;;;1.35;1.25;;;1.20;99.90;;;;;;5039946;28;20576;-75
2024/02/03 07:27:06;;;;;;;1.92;1.33;;;1.20;99.90;;;;;;5040164;28;20687;-75
2024/02/03 07:29:34;;;;;;;1.30;1.20;;;1.20;99.90;;;;;;5039599;28;20223;-77
2024/02/03 07:32:01;;;;;;;1.42;1.10;;;1.20;99.90;;;;;;5040029;28;20198;-76
2024/02/03 07:34:28;;;;;;;1.83;1.50;;;1.30;99.90;;;;;;5040070;28;20280;-76
2024/02/03 07:36:55;;;;;;;2.03;1.45;;;1.30;99.90;;;;;;5039638;28;20202;-76
2024/02/03 07:39:21;;;;;;;7.85;4.45;;;1.40;99.90;;;;;;5040871;28;20245;-77
2024/02/03 07:41:48;;;;;;;6.10;3.08;;;1.40;99.90;;;;;;5039902;28;20664;-77
2024/02/03 07:44:15;;;;;;;2.22;2.03;;;1.50;99.90;;;;;;5041310;28;20203;-76
2024/02/03 07:46:43;;;;;;;2.58;1.50;;;1.50;99.90;;;;;;5040114;28;20198;-76
2024/02/03 07:49:10;;;;;;;1.85;1.50;;;1.60;99.90;;;;;;5041179;28;20223;-76
2024/02/03 07:51:36;;;;;;;1.85;1.50;;;1.70;99.90;;;;;;5040124;28;20226;-76
2024/02/03 07:54:03;;;;;;;1.92;1.42;;;1.80;99.90;;;;;;5041093;28;20206;-77
2024/02/03 07:56:30;;;;;;;2.25;1.95;;;2.00;99.90;;;;;;5039555;28;20211;-77
2024/02/03 07:58:57;;;;;;;1.92;1.80;;;2.20;99.90;;;;;;5036911;28;20224;-76
2024/02/03 08:01:23;;;;;;;1.70;1.25;;;2.60;99.90;;;;;;5038372;28;20231;-76
2024/02/03 08:03:51;;;;;;;2.15;1.83;;;3.60;99.90;;;;;;5037235;28;20246;-76
2024/02/03 08:06:18;;;;;;;1.40;1.30;;;5.10;99.90;;;;;;5038362;28;20586;-76
2024/02/03 08:08:45;;;;;;;1.35;1.25;;;6.60;99.90;;;;;;5037455;28;20229;-77
2024/02/03 08:11:11;;;;;;;1.50;1.40;;;7.30;99.90;;;;;;5038438;28;20693;-76
2024/02/03 08:13:38;;;;;;;2.10;1.90;;;7.60;99.90;;;;;;5037340;28;20233;-77
2024/02/03 08:16:06;;;;;;;3.38;2.28;;;7.90;99.90;;;;;;5038195;28;20202;-77
2024/02/03 08:18:32;;;;;;;1.70;1.60;;;8.20;99.90;;;;;;5037376;28;20727;-77
2024/02/03 08:21:01;;;;;;;1.60;1.33;;;8.60;99.90;;;;;;5054231;28;20208;-77
2024/02/03 08:23:27;;;;;;;2.92;1.80;;;9.10;99.90;;;;;;5038191;28;20258;-77
2024/02/03 08:25:55;;;;;;;2.92;1.85;;;9.40;99.90;;;;;;5037064;28;20660;-76
2024/02/03 08:28:22;;;;;;;1.52;1.42;;;9.70;99.90;;;;;;5036911;28;20236;-77
2024/02/03 08:30:48;;;;;;;1.75;1.65;;;10.30;99.90;;;;;;5037465;28;20589;-76
2024/02/03 08:33:15;;;;;;;2.05;1.52;;;10.90;99.90;;;;;;5045597;28;20194;-77
2024/02/03 08:35:42;;;;;;;2.25;1.90;;;11.60;99.90;;;;;;5037433;28;20202;-77
2024/02/03 08:38:10;;;;;;;2.05;1.75;;;12.30;99.90;;;;;;5038893;28;20225;-76
2024/02/03 08:40:37;;;;;;;2.58;1.73;;;13.30;99.90;;;;;;5040518;28;20226;-77
2024/02/03 08:43:05;;;;;;;1.92;1.73;;;14.50;99.90;;;;;;5040746;28;20226;-77
2024/02/03 08:45:31;;;;;;;2.50;2.00;;;15.80;99.90;;;;;;5037657;28;20208;-78
2024/02/03 08:47:58;;;;;;;2.47;2.00;;;16.60;99.70;;;;;;5043624;28;20612;-77
2024/02/03 08:50:25;;;;;;;2.90;1.63;;;17.00;99.10;;;;;;5038981;28;20459;-76
2024/02/03 08:52:51;;;;;;;3.03;2.50;;;17.70;98.60;;;;;;5037721;28;20452;-77
2024/02/03 08:55:20;;;;;;;2.07;1.97;;;18.60;98.00;;;;;;5041333;28;20473;-78
2024/02/03 08:57:46;;;;;;;2.37;2.17;;;18.70;96.10;;;;;;5038291;28;20488;-78
2024/02/03 09:00:14;;;;;;;2.40;2.20;;;17.00;96.90;;;;;;5039638;28;20506;-77
2024/02/03 09:02:41;;;;;;;2.83;2.20;;;15.30;98.10;;;;;;5038254;28;20484;-77
2024/02/03 09:05:08;;;;;;;2.33;2.00;;;13.60;99.60;;;;;;5039622;28;20463;-78
2024/02/03 09:07:35;;;;;;;3.95;1.98;;;12.40;99.90;;;;;;5037838;28;20476;-78
2024/02/03 09:10:02;;;;;;;2.58;2.38;;;11.40;99.90;;;;;;5038679;28;20587;-77
2024/02/03 09:12:30;;;;;;;2.75;2.17;;;10.70;99.90;;;;;;5040223;28;20224;-78
2024/02/03 09:14:57;;;;;;;2.70;2.35;;;10.10;99.90;;;;;;5039008;28;20219;-77
2024/02/03 09:17:23;;;;;;;3.00;2.70;;;9.70;99.90;;;;;;5040916;28;20210;-78
2024/02/03 09:19:50;;;;;;;6.93;3.30;;;9.30;99.90;;;;;;5037890;28;20198;-77
2024/02/03 09:22:17;;;;;;;5.05;3.15;;;9.00;99.90;;;;;;5040126;28;20736;-77
2024/02/03 09:24:44;;;;;;;4.22;2.55;;;8.80;99.90;;;;;;5039251;28;20206;-77
2024/02/03 09:27:11;;;;;;;3.70;2.80;;;8.60;99.90;;;;;;5045151;28;20214;-77
2024/02/03 09:29:41;;;;;;;4.93;3.15;;;8.40;99.90;;;;;;5038072;28;20239;-76
2024/02/03 09:32:08;;;;;;;3.75;2.55;;;8.30;99.90;;;;;;5032516;28;20247;-75
2024/02/03 09:34:35;;;;;;;3.35;1.98;;;8.30;99.90;;;;;;5051104;28;20220;-76
2024/02/03 09:37:03;;;;;;;2.22;1.83;;;8.20;99.90;;;;;;5037719;28;20205;-76
2024/02/03 09:39:30;;;;;;;2.20;2.00;;;8.10;99.90;;;;;;5038075;28;20258;-75
2024/02/03 09:41:58;;;;;;;3.95;2.28;;;8.10;99.90;;;;;;5037693;28;20202;-76
2024/02/03 09:44:25;;;;;;;2.08;1.75;;;8.10;99.90;;;;;;5039279;28;20600;-76
2024/02/03 09:46:55;;;;;;;2.28;2.08;;;8.10;99.90;;;;;;5036824;28;20206;-76
2024/02/03 09:49:22;;;;;;;2.22;1.75;;;8.10;99.90;;;;;;5036518;28;20231;-76
2024/02/03 09:51:48;;;;;;;2.17;1.98;;;8.10;99.90;;;;;;5037505;28;20213;-76
2024/02/03 09:54:16;;;;;;;1.70;1.60;;;8.00;99.90;;;;;;5039650;28;20247;-77
2024/02/03 09:56:46;;;;;;;3.55;2.67;;;8.00;99.90;;;;;;5036902;28;20219;-76
2024/02/03 09:59:13;;;;;;;2.35;1.83;;;8.00;99.90;;;;;;5038750;28;20271;-76
2024/02/03 10:01:40;;;;;;;1.95;1.63;;;8.00;99.90;;;;;;5037746;28;20593;-76
2024/02/03 10:04:08;;;;;;;2.75;2.10;;;8.00;99.90;;;;;;5038532;28;20727;-76
2024/02/03 10:06:35;;;;;;;2.60;2.00;;;8.00;99.90;;;;;;5038406;28;20212;-75
2024/02/03 10:09:03;;;;;;;1.35;1.25;;;8.00;99.90;;;;;;5037726;28;20239;-76
2024/02/03 10:11:38;;;;;;;1.75;1.30;;;8.00;99.90;;;;;;5039218;28;20211;-76
2024/02/03 10:14:05;;;;;;;2.30;2.10;;;8.00;99.90;;;;;;5038581;28;20202;-76
2024/02/03 10:16:42;;;;;;;1.90;1.60;;;8.10;99.90;;;;;;5039194;28;20212;-76
2024/02/03 10:19:10;;;;;;;3.15;2.03;;;8.10;99.90;;;;;;5038840;28;20224;-76
2024/02/03 10:21:37;;;;;;;1.95;1.42;;;8.20;99.90;;;;;;5042964;28;20215;-75
2024/02/03 10:24:04;;;;;;;2.63;2.35;;;8.30;99.90;;;;;;5037960;28;20231;-75
2024/02/03 10:26:31;;;;;;;2.60;1.67;;;8.40;99.90;;;;;;5040691;28;20215;-75
2024/02/03 10:28:57;;;;;;;2.08;1.88;;;8.40;99.90;;;;;;5045252;28;20306;-75
2024/02/03 10:31:24;;;;;;;2.13;1.90;;;8.50;99.90;;;;;;5040947;28;20219;-75
2024/02/03 10:33:51;;;;;;;1.98;1.85;;;8.40;99.90;;;;;;5037842;28;20204;-74
2024/02/03 10:36:19;;;;;;;3.40;2.13;;;8.40;99.90;;;;;;5040351;28;20208;-75
2024/02/03 10:38:45;;;;;;;2.40;2.00;;;8.40;99.90;;;;;;5037718;28;20252;-75
2024/02/03 10:41:13;;;;;;;2.22;1.85;;;8.40;99.90;;;;;;5040102;28;20217;-76
2024/02/03 10:43:40;;;;;;;2.58;1.80;;;8.40;99.90;;;;;;5039432;28;20220;-76
2024/02/03 10:46:07;;;;;;;2.75;1.67;;;8.50;99.90;;;;;;5039210;28;20206;-75
2024/02/03 10:48:35;;;;;;;2.05;1.70;;;8.60;99.90;;;;;;5039878;28;20232;-76
2024/02/03 10:51:07;;;;;;;2.15;1.42;;;8.60;99.90;;;;;;5038686;28;20227;-75
2024/02/03 10:53:39;;;;;;;2.90;2.58;;;8.70;99.90;;;;;;5040767;28;20208;-75
2024/02/03 10:56:11;;;;;;;2.17;1.98;;;8.60;99.90;;;;;;5038664;28;20582;-75
2024/02/03 10:58:39;;;;;;;2.28;2.08;;;8.60;99.90;;;;;;5038695;28;20679;-75
2024/02/03 11:01:17;;;;;;;3.53;2.42;;;8.60;99.90;;;;;;5037504;28;20213;-75
2024/02/03 11:03:47;;;;;;;2.42;1.85;;;8.70;99.90;;;;;;5038833;28;20768;-75
2024/02/03 11:06:23;;;;;;;2.45;2.25;;;8.80;99.90;;;;;;5040509;28;20215;-74
2024/02/03 11:08:51;;;;;;;4.47;2.03;;;8.90;99.90;;;;;;5037709;28;20235;-75
2024/02/03 11:11:26;;;;;;;2.25;2.05;;;9.10;99.90;;;;;;5041149;28;20292;-75
2024/02/03 11:13:53;;;;;;;3.97;2.35;;;9.20;99.90;;;;;;5050181;28;20666;-75
2024/02/03 11:16:20;;;;;;;3.22;2.30;;;9.30;99.90;;;;;;5054016;28;20700;-75
2024/02/03 11:18:50;;;;;;;1.98;1.65;;;9.50;99.90;;;;;;5038414;28;20239;-75
2024/02/03 11:21:17;;;;;;;1.55;1.45;;;9.70;99.90;;;;;;5041402;28;20213;-75
2024/02/03 11:23:45;;;;;;;2.35;2.13;;;10.00;99.90;;;;;;5039278;28;20229;-75
2024/02/03 11:26:13;;;;;;;2.17;1.70;;;10.60;99.90;;;;;;5040083;28;20206;-75
2024/02/03 11:28:40;;;;;;;2.55;2.13;;;11.30;99.90;;;;;;5044024;28;20340;-75
2024/02/03 11:31:09;;;;;;;2.65;1.88;;;11.60;99.90;;;;;;5039828;28;20226;-75
2024/02/03 11:33:43;;;;;;;2.40;2.20;;;12.10;99.90;;;;;;5044843;28;20202;-75
2024/02/03 11:36:10;;;;;;;2.20;2.00;;;13.30;99.90;;;;;;5044047;28;20211;-75
2024/02/03 11:38:44;;;;;;;2.40;2.20;;;14.70;99.90;;;;;;5044270;28;20243;-75
2024/02/03 11:41:12;;;;;;;2.40;1.95;;;14.80;99.90;;;;;;5048498;28;20482;-75
2024/02/03 11:43:40;;;;;;;2.15;1.73;;;14.50;99.90;;;;;;5052869;28;20219;-75
2024/02/03 11:46:09;;;;;;;1.88;1.75;;;13.70;99.90;;;;;;5054645;28;20212;-76
2024/02/03 11:48:37;;;;;;;2.53;2.17;;;13.10;99.90;;;;;;5055201;28;20234;-76
2024/02/03 11:51:04;;;;;;;2.58;1.90;;;12.60;99.90;;;;;;5051915;28;20696;-76
2024/02/03 11:53:31;;;;;;;2.05;1.85;;;12.40;99.90;;;;;;5051273;28;20683;-76
2024/02/03 11:55:58;;;;;;;1.73;1.55;;;12.40;99.90;;;;;;5041050;28;20211;-76
2024/02/03 11:58:26;;;;;;;2.25;1.70;;;12.20;99.90;;;;;;5044348;28;20586;-75
2024/02/03 12:01:02;;;;;;;2.83;2.13;;;12.20;99.90;;;;;;5041864;28;20213;-75
2024/02/03 12:03:29;;;;;;;2.20;1.50;;;12.10;99.90;;;;;;5041936;28;20222;-75
2024/02/03 12:05:55;;;;;;;1.90;1.80;;;12.00;99.90;;;;;;5042347;28;20212;-76
2024/02/03 12:08:22;;;;;;;1.60;1.50;;;11.90;99.90;;;;;;5041836;28;20225;-76
2024/02/03 12:10:49;;;;;;;2.60;1.70;;;11.90;99.90;;;;;;5036741;28;20205;-76
2024/02/03 12:13:16;;;;;;;2.55;2.00;;;11.90;99.90;;;;;;5035400;28;20214;-76
2024/02/03 12:15:45;;;;;;;1.48;1.35;;;12.00;99.90;;;;;;5044346;28;20225;-76
2024/02/03 12:18:12;;;;;;;2.22;1.63;;;12.20;99.90;;;;;;5044463;28;20285;-75
2024/02/03 12:20:39;;;;;;;2.50;1.83;;;12.10;99.90;;;;;;5045578;28;20234;-76
2024/02/03 12:23:05;;;;;;;1.42;1.33;;;11.80;99.90;;;;;;5043808;28;20206;-76
2024/02/03 12:25:32;;;;;;;2.38;1.33;;;11.60;99.90;;;;;;5046215;28;20212;-76
2024/02/03 12:27:59;;;;;;;1.98;1.70;;;11.50;99.90;;;;;;5044779;28;20254;-76
2024/02/03 12:30:26;;;;;;;2.70;1.52;;;11.50;99.90;;;;;;5044432;28;20206;-75
2024/02/03 12:32:54;;;;;;;1.48;1.10;;;11.50;99.90;;;;;;5043161;28;20219;-76
2024/02/03 12:35:21;;;;;;;1.60;1.30;;;11.90;99.90;;;;;;5046007;28;20205;-76
2024/02/03 12:37:47;;;;;;;1.48;1.38;;;12.40;99.90;;;;;;5043898;28;20710;-76
2024/02/03 12:40:14;;;;;;;1.45;1.20;;;12.90;99.90;;;;;;5045839;28;20200;-76
2024/02/03 12:42:41;;;;;;;1.95;1.10;;;13.70;99.90;;;;;;5044868;28;20203;-76
2024/02/03 12:45:08;;;;;;;2.00;1.47;;;14.60;99.90;;;;;;5044184;28;20231;-76
2024/02/03 12:47:35;;;;;;;1.40;1.20;;;15.40;99.90;;;;;;5045910;28;20473;-76
2024/02/03 12:50:03;;;;;;;1.40;1.30;;;16.00;99.90;;;;;;5046668;28;20468;-76
2024/02/03 12:52:30;;;;;;;1.20;1.00;;;16.10;99.90;;;;;;5045640;28;20459;-76
2024/02/03 12:54:57;;;;;;;1.60;1.50;;;15.80;99.90;;;;;;5044048;28;20989;-76